Airfield :
LOGIN :

Register | Disclaimer

   EN    FR    IT 

 










Legend :    VFR   Marginal VFR   IFR   Intensive IFR   Very Intensive IFR
Visi :
Ceiling :
>= 8 km
>= 3000ft
5 to 8 km
1000 to 3000 ft
1500m to 5 km
500 to 1000 ft
800 to 1500m
200 to 500 ft
< 800m
< 200 ft
Symbols :   Thunderstorms  Fog  Heavy snow  Heavy precipitations  Wind > 20 kt
SIGMETs :     Misc.  Thunderstorms  Icing  Turbulence  Mountain Waves  Volcanic Ashes






- Airport Elevation : 995 ft
- IATA code : KTW


EPKT - Katowice

CURRENT METAR :
  • 020200Z 06006KT 030V090 9999 OVC009 M01/M03 Q1025

EXPIRED METARs :
  • 020130Z 07008KT 9999 OVC008 M01/M03 Q1025
  • 020100Z 07008KT 9999 OVC008 M01/M03 Q1025
  • 020030Z 07009KT 050V110 9999 OVC009 M01/M03 Q1025
  • 020000Z 07007KT 9999 OVC009 M01/M03 Q1025
  • 012330Z 08007KT 9999 SCT009 OVC010 M01/M03 Q1025

TAF TAF EPKT
Valid from the 02 at 00:00 until the 03 at 00:00 UTC


012330Z 0200/0224 07008KT 9999 OVC011
TEMPO 0200/0207 BKN007
PROB30
TEMPO 0200/0206 -FZDZ



MET'MAP, your aeronautical weather chart ! - Copyright ORBIFLY December 2007 - Disclaimer

ORBIFLY MET'MAP TEAM :

Programming & Development : Alexandra Zaïnal
Original concept : Baudouin d'Aumeries
Technical & hardware support : Manuel Goepfert
Assistance : Marc-Olivier Méhu




SOURCES & CREDITS :

   NOAA